Alice Town, Bahamas

7:41 AM EDT on July 23, 2016 (GMT -0400)
IBIMINIA2 | | Change Station

Elev 0 ft 25.73 °N, 79.30 °W | Updated 13 minutes ago

Scattered Clouds
Scattered Clouds
80.2 °F
Feels Like 85 °F
N
0.0
Wind Variable Wind from ESE

Today
High -- | Low -- °F
--% Chance of Precip.
Yesterday
High -- | Low -- °F
Precip. -- in
Pressure 30.01 in
Visibility 10.0 miles
Clouds Few 3000 ft
Scattered Clouds 6000 ft
Scattered Clouds 25000 ft
Heat Index 85 °F
Dew Point 75 °F
Humidity 85%
Rainfall 0.00 in
Snow Depth Not available.
6:39 AM 8:07 PM
Waning Gibbous, 86% visible
METAR KFLL 231053Z 35003KT 10SM FEW030 SCT060 SCT250 25/23 A3001 RMK AO2 SLP162 T02500228
Pressure 30.01 in
Visibility 10.0 miles
Clouds Few 3000 ft
Scattered Clouds 6000 ft
Scattered Clouds 25000 ft
Heat Index 85 °F
Dew Point 75 °F
Humidity 85%
Rainfall 0.00 in
Snow Depth Not available.
6:39 AM 8:07 PM
Waning Gibbous, 86% visible
METAR KFLL 231053Z 35003KT 10SM FEW030 SCT060 SCT250 25/23 A3001 RMK AO2 SLP162 T02500228

10-Day Weather Forecast

Almanac

Astronomy

Jul. 23, 2016 Rise Set
Actual Time
Civil Twilight
Nautical Twilight
Astronomical Twilight
Moon
Length of Visible Light
Length of Day
Tomorrow will be .
, % of the Moon is Illuminated

Today's Extremes

Country Highs Country Lows

Community

WunderPhotos

Upload Photos

1,926,810 photos uploaded!

WunderBlog® & News

Nearby

Air Quality

  Air Quality AQ Index Pollutant
Not available.

Snow Depth

Station Depth Elevation

Earthquake Activity

City Distance Mag. Time & Date
Minimum magnitude displayed is 2.5.

Coastal Water Temperatures

Place Temperature

Stations

Nearby Weather Stations

Station Location Temp. Windchill Dew Point Humidity Wind Precip. Elev Updated Type